Time;durP1;ratioP1;P1;durP2;ratioP2;P2;SDS_P1;SDS_P2;PMS_P1;PMS_P2;Temp;Humidity;BMP_temperature;BMP_pressure;BME280_temperature;BME280_humidity;BME280_pressure;Samples;Min_cycle;Max_cycle;Signal;HPM_P1;HPM_P2
2022/07/03 00:02:19;;;;;;;0.40;0.40;;;18.00;99.50;;;;;;5097813;28;20741;-73
2022/07/03 00:05:08;;;;;;;0.40;0.40;;;17.90;99.80;;;;;;5099332;28;20200;-73
2022/07/03 00:07:58;;;;;;;0.40;0.40;;;17.90;99.90;;;;;;5099016;28;20199;-73
2022/07/03 00:10:46;;;;;;;0.40;0.40;;;17.90;99.80;;;;;;5099290;28;20226;-71
2022/07/03 00:13:34;;;;;;;0.40;0.40;;;17.80;99.90;;;;;;5098814;28;20216;-72
2022/07/03 00:16:24;;;;;;;0.40;0.40;;;17.80;99.90;;;;;;5100184;28;20208;-71
2022/07/03 00:19:12;;;;;;;0.50;0.50;;;17.80;99.90;;;;;;5099369;28;20226;-73
2022/07/03 00:22:05;;;;;;;0.40;0.40;;;17.70;99.90;;;;;;5098109;28;20204;-72
2022/07/03 00:24:55;;;;;;;0.50;0.50;;;17.70;99.90;;;;;;5087133;28;20204;-73
2022/07/03 00:27:45;;;;;;;0.50;0.50;;;17.60;99.90;;;;;;5097787;28;20200;-72
2022/07/03 00:30:34;;;;;;;0.50;0.50;;;17.60;99.90;;;;;;5097782;28;20203;-74
2022/07/03 00:33:27;;;;;;;0.40;0.40;;;17.60;99.90;;;;;;5099029;28;20573;-73
2022/07/03 00:36:15;;;;;;;0.50;0.50;;;17.50;99.90;;;;;;5099518;28;20199;-72
2022/07/03 00:39:04;;;;;;;0.40;0.40;;;17.50;99.90;;;;;;5097417;28;20216;-74
2022/07/03 00:42:01;;;;;;;0.50;0.50;;;17.40;99.90;;;;;;5096046;28;20204;-74
2022/07/03 00:44:51;;;;;;;0.40;0.40;;;17.40;99.90;;;;;;5096443;28;20204;-73
2022/07/03 00:47:42;;;;;;;0.50;0.50;;;17.40;99.90;;;;;;5102512;28;20210;-72
2022/07/03 00:50:36;;;;;;;0.40;0.40;;;17.30;99.90;;;;;;5094137;28;20227;-76
2022/07/03 00:53:29;;;;;;;0.40;0.40;;;17.30;99.90;;;;;;5094400;28;20236;-74
2022/07/03 00:56:22;;;;;;;0.47;0.47;;;17.30;99.90;;;;;;5091721;28;20208;-72
2022/07/03 00:59:10;;;;;;;0.47;0.47;;;17.20;99.90;;;;;;5073485;28;20834;-73
2022/07/03 01:02:04;;;;;;;0.40;0.40;;;17.20;99.90;;;;;;5074558;28;20208;-72
2022/07/03 01:04:58;;;;;;;0.40;0.40;;;17.20;99.90;;;;;;5073857;28;20197;-78
2022/07/03 01:08:00;;;;;;;0.50;0.50;;;17.20;99.90;;;;;;5073689;28;20573;-75
2022/07/03 01:10:55;;;;;;;0.40;0.40;;;17.20;99.90;;;;;;5073402;28;20188;-75
2022/07/03 01:13:54;;;;;;;0.40;0.40;;;17.10;99.90;;;;;;5073779;28;20589;-74
2022/07/03 01:16:53;;;;;;;0.50;0.50;;;17.10;99.90;;;;;;5073075;28;20208;-78
2022/07/03 01:19:44;;;;;;;0.50;0.50;;;17.00;99.90;;;;;;5072595;28;20213;-73
2022/07/03 01:22:35;;;;;;;0.40;0.40;;;17.00;99.90;;;;;;5073402;28;20217;-72
2022/07/03 01:25:27;;;;;;;0.40;0.40;;;17.00;99.90;;;;;;5073616;28;20257;-72
2022/07/03 01:28:23;;;;;;;0.50;0.50;;;16.90;99.90;;;;;;5073793;28;20238;-74
2022/07/03 01:31:16;;;;;;;0.40;0.40;;;16.90;99.90;;;;;;5073307;28;20208;-72
2022/07/03 01:34:10;;;;;;;0.50;0.50;;;16.90;99.90;;;;;;5064911;28;20233;-72
2022/07/03 01:37:01;;;;;;;0.50;0.50;;;16.80;99.90;;;;;;5073088;28;20210;-74
2022/07/03 01:39:53;;;;;;;0.40;0.40;;;16.80;99.90;;;;;;5072764;28;20212;-74
2022/07/03 01:42:45;;;;;;;0.50;0.50;;;16.80;99.90;;;;;;5085491;28;20230;-72
2022/07/03 01:45:39;;;;;;;0.40;0.40;;;16.80;99.90;;;;;;5071531;28;20193;-76
2022/07/03 01:48:29;;;;;;;0.50;0.50;;;16.70;99.90;;;;;;5072507;28;20200;-72
2022/07/03 01:51:18;;;;;;;0.50;0.50;;;16.70;99.90;;;;;;5071565;28;20195;-73
2022/07/03 01:54:09;;;;;;;0.50;0.50;;;16.70;99.90;;;;;;5071319;28;20270;-75
2022/07/03 01:56:59;;;;;;;0.40;0.40;;;16.70;99.90;;;;;;5078500;28;20192;-72
2022/07/03 01:59:47;;;;;;;0.40;0.40;;;16.80;99.90;;;;;;5090584;28;20216;-73
2022/07/03 02:02:44;;;;;;;0.50;0.50;;;16.70;99.90;;;;;;5090286;28;20226;-73
2022/07/03 02:05:39;;;;;;;0.50;0.50;;;16.60;99.90;;;;;;5090397;28;20227;-73
2022/07/03 02:08:38;;;;;;;0.50;0.50;;;16.60;99.90;;;;;;5090431;28;20202;-72
2022/07/03 02:11:29;;;;;;;0.50;0.50;;;16.60;99.90;;;;;;5090589;28;20200;-72
2022/07/03 02:14:18;;;;;;;0.50;0.50;;;16.60;99.90;;;;;;5090876;28;20246;-71
2022/07/03 02:17:16;;;;;;;0.50;0.50;;;16.60;99.90;;;;;;5088819;28;20333;-71
2022/07/03 02:20:08;;;;;;;0.40;0.40;;;16.60;99.90;;;;;;5091115;28;20220;-73
2022/07/03 02:23:00;;;;;;;0.40;0.40;;;16.50;99.90;;;;;;5090691;28;20215;-72
2022/07/03 02:25:52;;;;;;;0.50;0.50;;;16.50;99.90;;;;;;5090528;28;20586;-73
2022/07/03 02:28:56;;;;;;;0.40;0.40;;;16.50;99.90;;;;;;5095225;28;20192;-74
2022/07/03 02:31:46;;;;;;;0.50;0.50;;;16.40;99.90;;;;;;5091233;28;20435;-73
2022/07/03 02:34:36;;;;;;;0.50;0.50;;;16.40;99.90;;;;;;5075642;28;20197;-72
2022/07/03 02:37:30;;;;;;;0.40;0.40;;;16.40;99.90;;;;;;5076219;28;20598;-74
2022/07/03 02:40:27;;;;;;;0.50;0.50;;;16.30;99.90;;;;;;5075234;28;20220;-72
2022/07/03 02:43:20;;;;;;;0.40;0.40;;;16.30;99.90;;;;;;5075420;28;20228;-73
2022/07/03 02:49:32;;;;;;;0.50;0.50;;;16.20;99.90;;;;;;5075528;28;20196;-72
2022/07/03 02:52:31;;;;;;;0.40;0.40;;;16.20;99.90;;;;;;5076190;28;20622;-71
2022/07/03 02:55:34;;;;;;;0.50;0.50;;;16.20;99.90;;;;;;5076437;28;20216;-75
2022/07/03 02:58:45;;;;;;;0.47;0.47;;;16.10;99.90;;;;;;5108637;28;20195;-72
2022/07/03 03:01:42;;;;;;;0.47;0.47;;;16.10;99.90;;;;;;5095071;28;20223;-73
2022/07/03 03:04:33;;;;;;;0.50;0.50;;;16.00;99.90;;;;;;5094649;28;20571;-74
2022/07/03 03:07:27;;;;;;;0.50;0.50;;;15.20;99.90;;;;;;5094062;28;20200;-73
2022/07/03 03:10:19;;;;;;;0.50;0.50;;;16.00;99.90;;;;;;5094240;28;20257;-73
2022/07/03 03:13:12;;;;;;;0.50;0.50;;;16.00;99.90;;;;;;5095015;28;20601;-73
2022/07/03 03:16:06;;;;;;;0.50;0.50;;;16.00;99.90;;;;;;5093704;28;20204;-72
2022/07/03 03:18:54;;;;;;;0.50;0.50;;;15.90;99.90;;;;;;5095136;28;20692;-71
2022/07/03 03:21:53;;;;;;;0.50;0.50;;;16.00;99.90;;;;;;5094111;28;20227;-76
2022/07/03 03:24:41;;;;;;;0.50;0.50;;;16.00;99.90;;;;;;5094537;28;20203;-71
2022/07/03 03:27:31;;;;;;;0.40;0.40;;;16.00;99.90;;;;;;5094441;28;20219;-72
2022/07/03 03:30:19;;;;;;;0.40;0.40;;;16.00;99.90;;;;;;5093531;28;20192;-72
2022/07/03 03:33:09;;;;;;;0.60;0.60;;;16.00;99.90;;;;;;5090458;28;20236;-72
2022/07/03 03:35:57;;;;;;;0.63;0.63;;;16.00;99.90;;;;;;5074347;28;20217;-72
2022/07/03 03:38:47;;;;;;;0.43;0.43;;;16.00;99.90;;;;;;5072692;28;20201;-73
2022/07/03 03:41:35;;;;;;;0.50;0.50;;;15.90;99.90;;;;;;5071844;28;20224;-72
2022/07/03 03:44:25;;;;;;;0.40;0.40;;;16.00;99.90;;;;;;5068638;28;20502;-71
2022/07/03 03:47:13;;;;;;;0.85;0.85;;;16.00;99.90;;;;;;5074078;28;20577;-72
2022/07/03 03:50:02;;;;;;;0.40;0.40;;;16.00;99.90;;;;;;5075145;28;20192;-75
2022/07/03 03:52:50;;;;;;;0.50;0.50;;;16.00;99.90;;;;;;5074233;28;20571;-72
2022/07/03 03:55:38;;;;;;;4.35;4.03;;;16.00;99.90;;;;;;5079689;28;20200;-72
2022/07/03 03:58:27;;;;;;;0.50;0.50;;;16.10;99.90;;;;;;5074934;28;20196;-71
2022/07/03 04:01:16;;;;;;;0.50;0.50;;;16.10;99.90;;;;;;5074070;28;20212;-72
2022/07/03 04:04:04;;;;;;;0.40;0.40;;;16.10;99.90;;;;;;5074537;28;20585;-73
2022/07/03 04:06:53;;;;;;;0.50;0.50;;;16.20;99.90;;;;;;5074869;28;20208;-72
2022/07/03 04:09:41;;;;;;;0.40;0.40;;;16.30;99.90;;;;;;5073853;28;20487;-72
2022/07/03 04:12:29;;;;;;;0.40;0.40;;;16.20;99.90;;;;;;5074276;28;20303;-72
2022/07/03 04:15:17;;;;;;;0.50;0.50;;;16.20;99.90;;;;;;5073946;28;20204;-72
2022/07/03 04:18:07;;;;;;;0.47;0.47;;;16.10;99.90;;;;;;5072729;28;20205;-72
2022/07/03 04:20:55;;;;;;;0.50;0.50;;;16.30;99.90;;;;;;5090152;28;20692;-72
2022/07/03 04:23:44;;;;;;;0.50;0.50;;;16.30;99.90;;;;;;5092847;28;20571;-73
2022/07/03 04:26:32;;;;;;;0.40;0.40;;;16.30;99.90;;;;;;5095378;28;20207;-72
2022/07/03 04:29:20;;;;;;;0.50;0.50;;;16.40;99.90;;;;;;5094906;28;20196;-71
2022/07/03 04:32:09;;;;;;;0.50;0.50;;;16.40;99.90;;;;;;5094352;28;20203;-71
2022/07/03 04:34:58;;;;;;;0.40;0.40;;;16.50;99.90;;;;;;5094631;28;20203;-72
2022/07/03 04:37:46;;;;;;;0.50;0.50;;;16.50;99.90;;;;;;5095372;28;20605;-72
2022/07/03 04:40:34;;;;;;;0.50;0.50;;;16.60;99.90;;;;;;5094364;28;20211;-72
2022/07/03 04:43:23;;;;;;;0.50;0.50;;;16.50;99.90;;;;;;5094646;28;20220;-73
2022/07/03 04:46:11;;;;;;;0.50;0.50;;;16.70;99.90;;;;;;5094473;28;20204;-72
2022/07/03 04:48:59;;;;;;;0.50;0.50;;;16.70;99.90;;;;;;5093590;28;20203;-72
2022/07/03 04:51:48;;;;;;;0.60;0.60;;;16.70;99.90;;;;;;5092336;28;20193;-73
2022/07/03 04:54:37;;;;;;;0.50;0.50;;;16.60;99.90;;;;;;5094485;28;20207;-72
2022/07/03 04:57:25;;;;;;;0.60;0.60;;;16.80;99.90;;;;;;5088663;28;20207;-71
2022/07/03 05:00:14;;;;;;;0.40;0.40;;;16.90;99.90;;;;;;5093219;28;20196;-72
2022/07/03 05:03:02;;;;;;;0.80;0.80;;;17.00;99.90;;;;;;5093744;28;20223;-70
2022/07/03 05:05:52;;;;;;;0.50;0.50;;;17.00;99.90;;;;;;5093182;28;20196;-72
2022/07/03 05:08:41;;;;;;;0.40;0.40;;;17.10;99.90;;;;;;5104268;28;20204;-71
2022/07/03 05:11:29;;;;;;;0.50;0.50;;;17.10;99.90;;;;;;5096369;28;20254;-72
2022/07/03 05:14:17;;;;;;;0.40;0.40;;;17.20;99.90;;;;;;5092722;28;20220;-73
2022/07/03 05:17:05;;;;;;;0.40;0.40;;;17.30;99.90;;;;;;5093202;28;20215;-72
2022/07/03 05:20:23;;;;;;;0.43;0.43;;;17.40;99.90;;;;;;5092665;28;20279;-76
2022/07/03 05:23:03;;;;;;;0.43;0.43;;;17.40;99.90;;;;;;5093254;28;20216;-72
2022/07/03 05:25:52;;;;;;;0.40;0.40;;;17.50;99.90;;;;;;5091141;28;20574;-72
2022/07/03 05:28:41;;;;;;;0.40;0.40;;;17.60;99.90;;;;;;5092512;28;20196;-72
2022/07/03 05:31:29;;;;;;;0.40;0.40;;;17.60;99.90;;;;;;5092164;28;20192;-72
2022/07/03 05:34:17;;;;;;;0.40;0.40;;;17.70;99.90;;;;;;5093021;28;20228;-72
2022/07/03 05:37:05;;;;;;;0.50;0.50;;;17.80;99.90;;;;;;5092322;28;20226;-72
2022/07/03 05:39:54;;;;;;;0.40;0.40;;;17.90;99.90;;;;;;5091917;28;20203;-73
2022/07/03 05:42:43;;;;;;;0.50;0.50;;;18.00;99.90;;;;;;5091552;28;20235;-72
2022/07/03 05:45:31;;;;;;;0.40;0.40;;;18.10;99.90;;;;;;5092625;28;20230;-71
2022/07/03 05:48:19;;;;;;;0.50;0.50;;;18.20;99.90;;;;;;5091470;28;20207;-73
2022/07/03 05:51:07;;;;;;;0.45;0.45;;;18.30;99.90;;;;;;5091492;28;20192;-73
2022/07/03 05:53:56;;;;;;;0.50;0.50;;;18.30;99.90;;;;;;5091397;28;20231;-73
2022/07/03 05:56:44;;;;;;;0.40;0.40;;;18.50;99.90;;;;;;5091504;28;20198;-73
2022/07/03 05:59:33;;;;;;;0.47;0.47;;;18.50;99.90;;;;;;5090343;28;20219;-77
2022/07/03 06:02:21;;;;;;;0.50;0.50;;;18.60;99.90;;;;;;5074607;28;20231;-75
2022/07/03 06:05:09;;;;;;;0.40;0.40;;;18.70;99.90;;;;;;5071331;28;20197;-76
2022/07/03 06:07:58;;;;;;;0.40;0.40;;;18.80;99.90;;;;;;5072988;28;20196;-74
2022/07/03 06:10:46;;;;;;;0.50;0.50;;;18.90;99.90;;;;;;5070283;28;20211;-75
2022/07/03 06:13:34;;;;;;;0.40;0.40;;;19.10;99.90;;;;;;5071851;28;20221;-74
2022/07/03 06:16:23;;;;;;;0.40;0.40;;;19.20;99.90;;;;;;5072547;28;20200;-75
2022/07/03 06:19:12;;;;;;;0.50;0.50;;;19.30;99.90;;;;;;5072491;28;20224;-73
2022/07/03 06:22:00;;;;;;;0.40;0.40;;;19.50;99.90;;;;;;5071860;28;20213;-76
2022/07/03 06:24:48;;;;;;;0.40;0.40;;;19.50;99.90;;;;;;5072541;28;20677;-71
2022/07/03 06:27:36;;;;;;;0.40;0.40;;;19.60;99.90;;;;;;5071771;28;20207;-75
2022/07/03 06:30:24;;;;;;;0.40;0.40;;;19.70;99.90;;;;;;5071011;28;20196;-75
2022/07/03 06:33:14;;;;;;;0.50;0.50;;;19.80;99.90;;;;;;5071971;28;20295;-74
2022/07/03 06:36:02;;;;;;;0.50;0.50;;;19.90;99.90;;;;;;5071240;28;20685;-75
2022/07/03 06:38:50;;;;;;;0.40;0.40;;;20.00;99.90;;;;;;5072524;28;20201;-72
2022/07/03 06:41:38;;;;;;;0.50;0.50;;;20.10;99.90;;;;;;5071534;28;20677;-72
2022/07/03 06:44:26;;;;;;;0.50;0.50;;;20.20;99.90;;;;;;5066146;28;20550;-71
2022/07/03 06:47:14;;;;;;;0.50;0.50;;;20.40;99.90;;;;;;5069668;28;20197;-74
2022/07/03 06:50:04;;;;;;;0.50;0.50;;;20.50;99.90;;;;;;5090649;28;20227;-72
2022/07/03 06:52:52;;;;;;;0.40;0.40;;;20.50;99.90;;;;;;5091854;28;20212;-73
2022/07/03 06:55:40;;;;;;;0.40;0.40;;;20.70;99.90;;;;;;5091473;28;20196;-74
2022/07/03 06:58:28;;;;;;;0.40;0.40;;;20.80;99.90;;;;;;5071416;28;20689;-73
2022/07/03 07:01:17;;;;;;;0.40;0.40;;;20.90;99.90;;;;;;5070690;28;20571;-72
2022/07/03 07:04:05;;;;;;;0.40;0.40;;;21.00;99.90;;;;;;5082557;28;20640;-71
2022/07/03 07:06:57;;;;;;;0.40;0.40;;;21.10;99.90;;;;;;5091758;28;20832;-73
2022/07/03 07:09:45;;;;;;;0.40;0.40;;;21.10;99.90;;;;;;5091013;28;20566;-72
2022/07/03 07:12:34;;;;;;;0.40;0.40;;;21.30;99.90;;;;;;5090490;28;20216;-72
2022/07/03 07:15:26;;;;;;;0.43;0.43;;;21.40;99.90;;;;;;5093569;28;20278;-72
2022/07/03 07:18:14;;;;;;;0.60;0.60;;;21.60;99.90;;;;;;5101433;28;20204;-72
2022/07/03 07:21:02;;;;;;;0.50;0.50;;;21.60;99.90;;;;;;5081925;28;20553;-73
2022/07/03 07:23:52;;;;;;;0.70;0.70;;;21.70;99.90;;;;;;5114149;28;20227;-71
2022/07/03 07:26:41;;;;;;;0.40;0.40;;;21.90;99.90;;;;;;5113040;28;20668;-73
2022/07/03 07:29:29;;;;;;;0.40;0.40;;;21.90;99.90;;;;;;5113083;28;20547;-74
2022/07/03 07:32:17;;;;;;;0.40;0.40;;;22.10;99.90;;;;;;5112257;28;20206;-74
2022/07/03 07:35:06;;;;;;;0.40;0.40;;;22.10;99.90;;;;;;5104268;28;20300;-72
2022/07/03 07:37:54;;;;;;;0.40;0.40;;;22.30;99.90;;;;;;5113624;28;20209;-72
2022/07/03 07:40:44;;;;;;;0.50;0.50;;;22.40;99.90;;;;;;5113468;28;20693;-72
2022/07/03 07:43:32;;;;;;;0.40;0.40;;;22.40;99.90;;;;;;5112844;28;20219;-72
2022/07/03 07:46:20;;;;;;;0.50;0.50;;;22.50;99.90;;;;;;5112518;28;20192;-74
2022/07/03 07:49:09;;;;;;;0.40;0.40;;;22.60;99.90;;;;;;5113147;28;20204;-72
2022/07/03 07:51:57;;;;;;;0.40;0.40;;;22.70;99.90;;;;;;5113640;28;20206;-71
2022/07/03 07:54:45;;;;;;;0.60;0.60;;;22.90;99.90;;;;;;5113406;28;20272;-72
2022/07/03 07:57:38;;;;;;;0.40;0.40;;;22.90;99.90;;;;;;5086576;28;20204;-73
2022/07/03 08:00:26;;;;;;;0.40;0.40;;;22.90;99.90;;;;;;5073804;28;20205;-74
2022/07/03 08:06:20;;;;;;;0.40;0.40;;;23.20;99.90;;;;;;5072591;28;20297;-72
2022/07/03 08:09:08;;;;;;;0.50;0.50;;;23.20;99.50;;;;;;5073567;28;20677;-71
2022/07/03 08:11:56;;;;;;;0.40;0.40;;;23.30;99.10;;;;;;5099877;28;20226;-74
2022/07/03 08:14:45;;;;;;;0.40;0.40;;;23.40;99.30;;;;;;5112612;28;20218;-72
2022/07/03 08:17:33;;;;;;;0.40;0.40;;;23.40;99.20;;;;;;5112128;28;20555;-72
2022/07/03 08:20:21;;;;;;;0.40;0.40;;;23.50;99.20;;;;;;5112000;28;20191;-71
2022/07/03 08:23:10;;;;;;;0.40;0.40;;;23.50;98.50;;;;;;5111827;28;20233;-73
2022/07/03 08:25:58;;;;;;;0.40;0.40;;;23.60;98.50;;;;;;5112218;28;20663;-71
2022/07/03 08:28:46;;;;;;;0.40;0.40;;;23.70;98.70;;;;;;5112533;28;20210;-71
2022/07/03 08:31:35;;;;;;;0.40;0.40;;;23.80;97.60;;;;;;5112321;28;20209;-71
2022/07/03 08:34:24;;;;;;;0.40;0.40;;;23.60;97.10;;;;;;5113314;28;20232;-71
2022/07/03 08:37:12;;;;;;;0.43;0.43;;;23.90;96.90;;;;;;5112369;28;20610;-73
2022/07/03 08:40:00;;;;;;;0.40;0.40;;;23.90;97.30;;;;;;5111929;28;20260;-75
2022/07/03 08:42:50;;;;;;;0.50;0.50;;;23.90;97.10;;;;;;5112832;28;20223;-73
2022/07/03 08:45:39;;;;;;;0.50;0.50;;;24.00;97.50;;;;;;5112395;28;20196;-73
2022/07/03 08:48:32;;;;;;;0.50;0.50;;;24.00;96.50;;;;;;5112087;28;20216;-71
2022/07/03 08:51:21;;;;;;;0.40;0.40;;;24.10;96.60;;;;;;5111675;28;20604;-72
2022/07/03 08:54:09;;;;;;;0.50;0.50;;;24.10;95.80;;;;;;5112719;28;20207;-73
2022/07/03 08:56:58;;;;;;;0.98;0.98;;;24.20;96.00;;;;;;5095922;28;20199;-73
2022/07/03 08:59:52;;;;;;;0.50;0.50;;;24.20;96.40;;;;;;5073190;28;20208;-71
2022/07/03 09:02:44;;;;;;;0.40;0.40;;;24.30;94.00;;;;;;5073093;28;20645;-71
2022/07/03 09:05:35;;;;;;;0.40;0.40;;;24.30;93.00;;;;;;5071787;28;20673;-72
2022/07/03 09:08:24;;;;;;;0.40;0.40;;;24.40;93.90;;;;;;5072813;28;20201;-73
2022/07/03 09:11:12;;;;;;;0.40;0.40;;;24.40;93.80;;;;;;5073233;28;20200;-72
2022/07/03 09:14:02;;;;;;;0.50;0.50;;;24.50;94.00;;;;;;5072589;28;20220;-72
2022/07/03 09:16:50;;;;;;;0.40;0.40;;;24.60;94.00;;;;;;5071903;28;20666;-70
2022/07/03 09:19:43;;;;;;;0.50;0.50;;;24.70;93.70;;;;;;5071756;28;20699;-72
2022/07/03 09:22:34;;;;;;;0.40;0.40;;;24.70;93.00;;;;;;5075474;28;20238;-72
2022/07/03 09:25:22;;;;;;;0.50;0.50;;;24.80;92.70;;;;;;5074959;28;20712;-73
2022/07/03 09:28:10;;;;;;;0.40;0.40;;;24.90;92.50;;;;;;5072831;28;20227;-72
2022/07/03 09:31:00;;;;;;;1.05;0.98;;;25.00;92.70;;;;;;5072904;28;20201;-72
2022/07/03 09:33:53;;;;;;;0.40;0.40;;;24.90;92.50;;;;;;5072882;28;20248;-72
2022/07/03 09:36:43;;;;;;;0.45;0.45;;;25.00;91.90;;;;;;5070699;28;20197;-72
2022/07/03 09:39:36;;;;;;;1.35;1.08;;;25.00;92.10;;;;;;5071348;28;20201;-72
2022/07/03 09:42:24;;;;;;;0.40;0.40;;;25.10;92.40;;;;;;5072684;28;20508;-72
2022/07/03 09:45:12;;;;;;;0.40;0.40;;;25.20;91.50;;;;;;5072227;28;20632;-72
2022/07/03 09:48:00;;;;;;;0.85;0.85;;;25.30;91.60;;;;;;5072245;28;20215;-72
2022/07/03 09:51:10;;;;;;;0.40;0.40;;;25.30;91.70;;;;;;5071834;28;20613;-72
2022/07/03 09:54:00;;;;;;;0.60;0.60;;;25.30;90.80;;;;;;5071125;28;20239;-72
2022/07/03 09:56:49;;;;;;;0.50;0.50;;;25.40;91.40;;;;;;5071245;28;20581;-72
2022/07/03 09:59:37;;;;;;;0.50;0.50;;;25.40;91.70;;;;;;5071111;28;20200;-72
2022/07/03 10:02:26;;;;;;;0.50;0.50;;;25.30;91.70;;;;;;5071799;28;20224;-71
2022/07/03 10:05:14;;;;;;;0.40;0.40;;;25.50;91.70;;;;;;5072279;28;20301;-71
2022/07/03 10:08:05;;;;;;;0.40;0.40;;;25.60;91.30;;;;;;5070922;28;20208;-71
2022/07/03 10:10:53;;;;;;;0.40;0.40;;;25.70;91.10;;;;;;5071161;28;20196;-71
2022/07/03 10:13:43;;;;;;;0.40;0.40;;;25.80;91.20;;;;;;5071443;28;20223;-72
2022/07/03 10:16:31;;;;;;;0.50;0.50;;;25.80;91.40;;;;;;5071795;28;20197;-72
2022/07/03 10:19:21;;;;;;;0.50;0.50;;;25.90;91.50;;;;;;5070238;28;20338;-73
2022/07/03 10:22:18;;;;;;;0.82;0.82;;;25.90;90.80;;;;;;5071768;28;20200;-73
2022/07/03 10:25:08;;;;;;;0.55;0.55;;;26.00;90.70;;;;;;5070641;28;20217;-72
2022/07/03 10:27:57;;;;;;;0.40;0.40;;;26.10;91.00;;;;;;5070471;28;20204;-72
2022/07/03 10:30:48;;;;;;;0.40;0.40;;;26.20;90.00;;;;;;5070884;28;20211;-72
2022/07/03 10:33:38;;;;;;;0.40;0.40;;;26.30;90.60;;;;;;5070408;28;20220;-72
2022/07/03 10:36:26;;;;;;;0.40;0.40;;;26.40;90.20;;;;;;5070917;28;20208;-73
2022/07/03 10:39:27;;;;;;;0.40;0.40;;;26.30;89.90;;;;;;5070570;28;20203;-72
2022/07/03 10:45:38;;;;;;;0.40;0.40;;;26.30;89.20;;;;;;5070985;28;20201;-72
2022/07/03 10:48:52;;;;;;;0.63;0.63;;;26.30;88.20;;;;;;5071998;28;20196;-72
2022/07/03 10:51:57;;;;;;;0.40;0.40;;;26.40;88.30;;;;;;5074249;28;20201;-71
2022/07/03 10:54:50;;;;;;;0.40;0.40;;;26.50;87.40;;;;;;5075099;28;20203;-70
2022/07/03 10:57:40;;;;;;;0.40;0.40;;;26.60;82.80;;;;;;5082186;28;20481;-71
2022/07/03 11:00:28;;;;;;;0.40;0.40;;;26.70;81.40;;;;;;5093720;28;20211;-70
2022/07/03 11:03:56;;;;;;;0.50;0.50;;;26.80;81.20;;;;;;5094225;28;20216;-71
2022/07/03 11:07:09;;;;;;;0.50;0.50;;;27.00;82.80;;;;;;5093966;28;20196;-70
2022/07/03 11:10:30;;;;;;;0.85;0.55;;;27.20;82.70;;;;;;5093377;28;20210;-71
2022/07/03 11:13:22;;;;;;;0.40;0.40;;;27.20;78.80;;;;;;5093522;28;20216;-70
2022/07/03 11:16:23;;;;;;;0.40;0.40;;;27.20;78.50;;;;;;5093526;28;20595;-71
2022/07/03 11:19:26;;;;;;;0.50;0.50;;;27.10;79.00;;;;;;5092579;28;20196;-70
2022/07/03 11:22:21;;;;;;;0.40;0.40;;;27.10;79.30;;;;;;5092706;28;20199;-71
2022/07/03 11:25:09;;;;;;;0.50;0.50;;;27.10;79.70;;;;;;5093870;28;20751;-70
2022/07/03 11:27:57;;;;;;;0.40;0.40;;;27.20;80.00;;;;;;5080966;28;20205;-71
2022/07/03 11:31:19;;;;;;;0.40;0.40;;;27.40;77.30;;;;;;5072409;28;20197;-71
2022/07/03 11:34:07;;;;;;;0.40;0.40;;;27.40;78.00;;;;;;5073332;28;20699;-71
2022/07/03 11:37:03;;;;;;;0.40;0.40;;;27.50;78.00;;;;;;5073403;28;20416;-71
2022/07/03 11:39:54;;;;;;;0.40;0.40;;;27.70;77.20;;;;;;5073469;28;20208;-70
2022/07/03 11:42:42;;;;;;;0.40;0.40;;;27.80;75.60;;;;;;5071915;28;20228;-70
2022/07/03 11:45:31;;;;;;;0.40;0.40;;;27.80;76.00;;;;;;5073155;28;20220;-70
2022/07/03 11:48:20;;;;;;;0.40;0.40;;;27.80;74.50;;;;;;5072710;28;20208;-71
2022/07/03 11:51:08;;;;;;;0.40;0.40;;;27.90;74.50;;;;;;5072012;28;20192;-70
2022/07/03 11:53:58;;;;;;;0.40;0.40;;;28.00;76.60;;;;;;5073044;28;20242;-70
2022/07/03 11:56:47;;;;;;;0.40;0.40;;;28.10;76.10;;;;;;5079833;28;20696;-70
2022/07/03 11:59:36;;;;;;;0.40;0.40;;;28.10;75.80;;;;;;5091098;28;20526;-71
2022/07/03 12:02:24;;;;;;;0.40;0.40;;;27.90;73.10;;;;;;5092837;28;20228;-71
2022/07/03 12:05:16;;;;;;;0.40;0.40;;;27.80;73.80;;;;;;5092835;28;20223;-71
2022/07/03 12:08:10;;;;;;;0.40;0.40;;;27.70;75.50;;;;;;5093695;28;20207;-70
2022/07/03 12:11:03;;;;;;;0.40;0.40;;;27.90;75.30;;;;;;5091973;28;20551;-71
2022/07/03 12:13:52;;;;;;;0.95;0.95;;;28.30;73.60;;;;;;5094075;28;20223;-71
2022/07/03 12:16:40;;;;;;;0.40;0.40;;;28.70;73.40;;;;;;5094210;28;20199;-69
2022/07/03 12:19:29;;;;;;;0.75;0.75;;;28.80;72.40;;;;;;5092459;28;20270;-71
2022/07/03 12:22:24;;;;;;;0.40;0.40;;;28.80;71.10;;;;;;5093233;28;20207;-70
2022/07/03 12:25:14;;;;;;;0.40;0.40;;;28.90;71.40;;;;;;5093150;28;20238;-71
2022/07/03 12:28:05;;;;;;;0.40;0.40;;;28.80;71.50;;;;;;5093344;28;20195;-71
2022/07/03 12:30:53;;;;;;;1.67;1.58;;;28.90;70.90;;;;;;5092311;28;20207;-70
2022/07/03 12:33:41;;;;;;;0.40;0.40;;;28.70;71.50;;;;;;5093255;28;20242;-71
2022/07/03 12:36:30;;;;;;;0.40;0.40;;;28.70;72.20;;;;;;5093233;28;20249;-70
2022/07/03 12:39:18;;;;;;;0.40;0.40;;;29.00;72.90;;;;;;5091815;28;20215;-70
2022/07/03 12:42:15;;;;;;;0.50;0.50;;;29.60;71.50;;;;;;5093454;28;20200;-70
2022/07/03 12:45:07;;;;;;;0.40;0.40;;;30.50;68.90;;;;;;5091803;28;20212;-71
2022/07/03 12:47:59;;;;;;;0.40;0.40;;;32.10;68.40;;;;;;5092738;28;20200;-71
2022/07/03 12:50:51;;;;;;;0.40;0.40;;;34.60;63.30;;;;;;5092174;28;20545;-71
2022/07/03 12:53:39;;;;;;;0.40;0.40;;;37.20;57.40;;;;;;5093390;28;20219;-71
2022/07/03 12:56:27;;;;;;;0.40;0.40;;;39.90;52.90;;;;;;5089355;28;20193;-71
2022/07/03 12:59:24;;;;;;;0.40;0.40;;;42.30;47.70;;;;;;5083779;28;20192;-72
2022/07/03 13:02:14;;;;;;;0.50;0.50;;;43.20;44.80;;;;;;5091219;28;20200;-71
2022/07/03 13:05:14;;;;;;;0.50;0.50;;;42.70;42.50;;;;;;5091899;28;20219;-71
2022/07/03 13:08:06;;;;;;;0.52;0.52;;;41.00;42.60;;;;;;5092254;28;20585;-72
2022/07/03 13:10:56;;;;;;;1.30;0.85;;;41.40;44.10;;;;;;5092915;28;20197;-71
2022/07/03 13:13:48;;;;;;;0.40;0.40;;;42.20;41.20;;;;;;5091616;28;20216;-72
2022/07/03 13:16:38;;;;;;;0.40;0.40;;;41.10;42.80;;;;;;5092863;28;20251;-71
2022/07/03 13:19:29;;;;;;;0.40;0.40;;;40.30;44.70;;;;;;5091517;28;20196;-71
2022/07/03 13:22:17;;;;;;;0.50;0.50;;;41.90;42.10;;;;;;5092657;28;20200;-72
2022/07/03 13:25:06;;;;;;;0.68;0.68;;;42.40;39.70;;;;;;5092298;28;20597;-72
2022/07/03 13:28:04;;;;;;;0.50;0.50;;;40.30;39.80;;;;;;5091007;28;20223;-71
2022/07/03 13:30:52;;;;;;;0.50;0.50;;;38.10;43.30;;;;;;5083220;28;20669;-71
2022/07/03 13:33:40;;;;;;;0.50;0.50;;;36.50;45.90;;;;;;5070547;28;20262;-71
2022/07/03 13:36:31;;;;;;;0.40;0.40;;;35.30;47.30;;;;;;5072161;28;20204;-71
2022/07/03 13:39:19;;;;;;;0.40;0.40;;;35.40;46.70;;;;;;5072042;28;20201;-71
2022/07/03 13:42:10;;;;;;;0.40;0.40;;;37.60;45.60;;;;;;5071122;28;20201;-72
2022/07/03 13:44:58;;;;;;;0.40;0.40;;;41.00;42.60;;;;;;5070748;28;20208;-72
2022/07/03 13:47:46;;;;;;;0.50;0.50;;;44.40;40.00;;;;;;5071076;28;20205;-74
2022/07/03 13:50:34;;;;;;;0.50;0.50;;;47.00;37.00;;;;;;5070927;28;20197;-72
2022/07/03 13:53:24;;;;;;;0.70;0.70;;;48.10;34.30;;;;;;5070111;28;20218;-73
2022/07/03 13:56:14;;;;;;;0.60;0.60;;;48.90;34.50;;;;;;5071914;28;20205;-72
2022/07/03 13:59:02;;;;;;;0.63;0.63;;;47.20;33.80;;;;;;5091887;28;20223;-72
2022/07/03 14:01:50;;;;;;;0.50;0.50;;;45.50;35.30;;;;;;5090780;28;20218;-71
2022/07/03 14:04:38;;;;;;;0.52;0.52;;;45.90;35.80;;;;;;5090362;28;20196;-71
2022/07/03 14:07:26;;;;;;;0.60;0.60;;;47.20;34.60;;;;;;5089933;28;20201;-72
2022/07/03 14:10:16;;;;;;;0.60;0.60;;;48.10;32.60;;;;;;5090349;28;20678;-73
2022/07/03 14:13:05;;;;;;;0.60;0.60;;;49.30;32.30;;;;;;5082024;28;20227;-72
2022/07/03 14:15:53;;;;;;;0.63;0.63;;;49.90;31.90;;;;;;5089846;28;20211;-73
2022/07/03 14:18:42;;;;;;;0.80;0.80;;;50.90;31.80;;;;;;5091641;28;20689;-73
2022/07/03 14:21:30;;;;;;;0.60;0.60;;;51.30;30.60;;;;;;5092373;28;20204;-73
2022/07/03 14:24:18;;;;;;;0.82;0.82;;;51.10;30.40;;;;;;5092890;28;20701;-73
2022/07/03 14:33:20;;;;;;;0.70;0.70;;;51.80;29.40;;;;;;5094782;28;20232;-73
2022/07/03 14:36:08;;;;;;;0.80;0.80;;;51.60;28.50;;;;;;5096929;28;20191;-73
2022/07/03 14:39:16;;;;;;;0.80;0.80;;;49.80;30.00;;;;;;5094272;28;20312;-73
2022/07/03 14:42:05;;;;;;;0.68;0.68;;;47.70;31.10;;;;;;5094741;28;20550;-70
2022/07/03 14:44:54;;;;;;;0.60;0.60;;;46.50;31.60;;;;;;5093617;28;20253;-71
2022/07/03 14:47:42;;;;;;;0.60;0.60;;;43.80;32.40;;;;;;5093889;28;20551;-71
2022/07/03 14:50:30;;;;;;;0.60;0.60;;;41.90;34.40;;;;;;5094793;28;20200;-71
2022/07/03 14:53:19;;;;;;;0.50;0.50;;;41.80;36.30;;;;;;5093987;28;20226;-71
2022/07/03 14:56:08;;;;;;;0.50;0.50;;;41.80;36.40;;;;;;5093574;28;20317;-71
2022/07/03 14:59:01;;;;;;;0.50;0.50;;;41.70;36.70;;;;;;5074080;28;20197;-72
2022/07/03 15:01:53;;;;;;;0.50;0.50;;;42.70;35.40;;;;;;5075059;28;20197;-72
2022/07/03 15:04:59;;;;;;;0.50;0.50;;;45.50;34.20;;;;;;5074202;28;20238;-71
2022/07/03 15:08:03;;;;;;;0.50;0.50;;;47.90;32.40;;;;;;5073513;28;20565;-71